createdAt,value
2019-05-22T00:00:44.230Z,27.80
2019-05-22T00:03:24.118Z,28.70
2019-05-22T00:05:55.979Z,29.17
2019-05-22T00:08:26.298Z,30.07
2019-05-22T00:10:57.398Z,29.00
2019-05-22T00:13:34.757Z,28.77
2019-05-22T00:16:04.226Z,30.33
2019-05-22T00:18:33.673Z,30.27
2019-05-22T00:21:04.592Z,30.43
2019-05-22T00:23:34.569Z,31.87
2019-05-22T00:26:04.021Z,30.53
2019-05-22T00:28:33.515Z,29.83
2019-05-22T00:31:02.977Z,31.73
2019-05-22T00:33:36.100Z,31.97
2019-05-22T00:36:04.499Z,31.93
2019-05-22T00:38:34.152Z,32.53
2019-05-22T00:41:11.914Z,30.73
2019-05-22T00:43:44.585Z,31.77
2019-05-22T00:46:16.195Z,32.00
2019-05-22T00:48:47.917Z,31.70
2019-05-22T00:51:31.407Z,32.40
2019-05-22T00:54:03.593Z,29.77
2019-05-22T00:56:34.736Z,29.67
2019-05-22T00:59:07.541Z,29.47
2019-05-22T01:01:46.093Z,29.47
2019-05-22T01:04:17.866Z,29.90
2019-05-22T01:06:48.633Z,29.50
2019-05-22T01:09:19.924Z,29.70
2019-05-22T01:11:51.701Z,28.90
2019-05-22T01:14:23.765Z,29.47
2019-05-22T01:16:53.511Z,29.07
2019-05-22T01:19:24.156Z,27.93
2019-05-22T01:21:55.416Z,29.87
2019-05-22T01:24:25.332Z,29.73
2019-05-22T01:26:56.868Z,28.73
2019-05-22T01:29:26.435Z,29.47
2019-05-22T01:32:03.867Z,29.97
2019-05-22T01:34:35.587Z,35.33
2019-05-22T01:37:07.474Z,37.00
2019-05-22T01:39:47.915Z,36.10
2019-05-22T01:42:21.332Z,35.47
2019-05-22T01:45:04.602Z,37.53
2019-05-22T01:47:38.794Z,34.93
2019-05-22T01:50:10.341Z,36.83
2019-05-22T01:52:40.571Z,37.67
2019-05-22T01:55:12.006Z,38.33
2019-05-22T01:57:41.949Z,38.00
2019-05-22T02:00:13.560Z,39.33
2019-05-22T02:02:43.978Z,39.17
2019-05-22T02:05:14.680Z,38.87
2019-05-22T02:07:46.258Z,38.57
2019-05-22T02:10:20.930Z,38.83
2019-05-22T02:12:54.832Z,36.93
2019-05-22T02:15:25.058Z,35.77
2019-05-22T02:17:56.569Z,35.70
2019-05-22T02:20:27.002Z,33.97
2019-05-22T02:22:57.542Z,32.70
2019-05-22T02:25:29.337Z,32.10
2019-05-22T02:27:59.003Z,30.47
2019-05-22T02:30:30.076Z,30.00
2019-05-22T02:33:01.245Z,30.03
2019-05-22T02:35:30.942Z,27.50
2019-05-22T02:38:01.262Z,27.47
2019-05-22T02:40:34.016Z,26.00
2019-05-22T02:43:03.905Z,26.00
2019-05-22T02:45:34.045Z,25.27
2019-05-22T02:48:06.112Z,26.20
2019-05-22T02:50:37.679Z,26.80
2019-05-22T02:53:09.844Z,26.47
2019-05-22T02:55:40.405Z,24.87
2019-05-22T02:58:11.100Z,24.60
2019-05-22T03:00:55.981Z,25.00
2019-05-22T03:03:26.871Z,26.33
2019-05-22T03:05:56.348Z,26.13
2019-05-22T03:08:29.440Z,26.20
2019-05-22T03:10:59.264Z,24.57
2019-05-22T03:13:42.191Z,25.50
2019-05-22T03:16:12.506Z,24.63
2019-05-22T03:18:44.309Z,24.07
2019-05-22T03:21:13.835Z,23.93
2019-05-22T03:23:43.634Z,23.03
2019-05-22T03:26:14.854Z,22.47
2019-05-22T03:28:45.902Z,21.83
2019-05-22T03:31:16.307Z,24.27
2019-05-22T03:33:47.312Z,23.23
2019-05-22T03:36:18.859Z,22.47
2019-05-22T03:38:48.730Z,23.30
2019-05-22T03:41:18.779Z,24.50
2019-05-22T03:43:50.848Z,24.00
2019-05-22T03:46:24.439Z,24.47
2019-05-22T03:48:54.266Z,23.07
2019-05-22T03:51:25.600Z,23.80
2019-05-22T03:53:55.067Z,23.97
2019-05-22T03:56:24.879Z,24.13
2019-05-22T03:58:55.343Z,22.43
2019-05-22T04:01:26.123Z,24.57
2019-05-22T04:03:56.741Z,27.70
2019-05-22T04:06:27.548Z,28.60
2019-05-22T04:09:00.388Z,30.67
2019-05-22T04:11:33.329Z,29.90
2019-05-22T04:14:03.050Z,31.03
2019-05-22T04:16:33.386Z,31.27
2019-05-22T04:19:05.115Z,31.90
2019-05-22T04:21:35.434Z,31.27
2019-05-22T04:24:05.006Z,32.00
2019-05-22T04:26:35.021Z,29.43
2019-05-22T04:29:05.231Z,28.93
2019-05-22T04:31:51.237Z,29.40
2019-05-22T04:34:20.881Z,28.37
2019-05-22T04:36:50.392Z,29.57
2019-05-22T04:39:22.368Z,30.53
2019-05-22T04:41:52.697Z,30.93
2019-05-22T04:44:22.347Z,32.43
2019-05-22T04:46:52.142Z,32.00
2019-05-22T04:49:21.672Z,33.57
2019-05-22T04:51:51.124Z,33.03
2019-05-22T04:54:20.595Z,32.67
2019-05-22T04:56:51.504Z,34.33
2019-05-22T04:59:21.225Z,31.30
2019-05-22T05:01:50.949Z,32.43
2019-05-22T05:04:21.044Z,32.37
2019-05-22T05:06:51.053Z,33.30
2019-05-22T05:09:20.595Z,33.87
2019-05-22T05:11:50.540Z,33.67
2019-05-22T05:14:20.006Z,35.20
2019-05-22T05:16:49.470Z,36.77
2019-05-22T05:19:19.109Z,33.27
2019-05-22T05:21:48.601Z,34.70
2019-05-22T05:24:18.169Z,37.23
2019-05-22T05:26:47.848Z,36.33
2019-05-22T05:29:28.567Z,37.27
2019-05-22T05:31:58.960Z,35.93
2019-05-22T05:34:31.609Z,34.13
2019-05-22T05:37:02.244Z,33.50
2019-05-22T05:39:37.695Z,35.80
2019-05-22T05:42:07.157Z,31.87
2019-05-22T05:44:36.994Z,31.03
2019-05-22T05:47:07.044Z,29.57
2019-05-22T05:49:36.570Z,25.40
2019-05-22T05:52:07.069Z,25.43
2019-05-22T05:54:37.704Z,24.97
2019-05-22T05:57:34.788Z,25.67
2019-05-22T06:00:08.036Z,26.70
2019-05-22T06:02:37.483Z,27.10
2019-05-22T06:05:08.453Z,26.70
2019-05-22T06:07:38.442Z,29.73
2019-05-22T06:10:25.739Z,29.67
2019-05-22T06:12:55.816Z,30.40
2019-05-22T06:15:46.925Z,30.87
2019-05-22T06:18:26.620Z,33.40
2019-05-22T06:21:03.949Z,33.87
2019-05-22T06:23:39.836Z,31.33
2019-05-22T06:26:09.855Z,29.60
2019-05-22T06:28:39.689Z,31.70
2019-05-22T06:31:15.217Z,30.83
2019-05-22T06:33:44.957Z,30.70
2019-05-22T06:36:17.023Z,32.67
2019-05-22T06:38:52.464Z,36.33
2019-05-22T06:41:24.122Z,37.20
2019-05-22T06:44:19.520Z,40.43
2019-05-22T06:46:49.043Z,42.63
2019-05-22T06:49:36.288Z,43.97
2019-05-22T06:52:07.540Z,45.13
2019-05-22T06:54:38.246Z,44.80
2019-05-22T06:57:10.190Z,46.63
2019-05-22T06:59:41.073Z,41.37
2019-05-22T07:02:13.005Z,40.07
2019-05-22T07:04:42.714Z,37.83
2019-05-22T07:07:14.150Z,37.03
2019-05-22T07:09:44.828Z,38.20
2019-05-22T07:12:15.537Z,37.33
2019-05-22T07:14:54.662Z,37.00
2019-05-22T07:17:25.400Z,36.80
2019-05-22T07:19:55.614Z,37.57
2019-05-22T07:22:25.935Z,36.90
2019-05-22T07:24:55.678Z,40.00
2019-05-22T07:27:26.870Z,41.40
2019-05-22T07:29:56.614Z,42.53
2019-05-22T07:32:30.534Z,43.47
2019-05-22T07:34:57.744Z,41.33
2019-05-22T07:37:27.297Z,38.73
2019-05-22T07:39:56.746Z,38.77
2019-05-22T07:42:26.233Z,39.80
2019-05-22T07:44:56.073Z,37.67
2019-05-22T07:47:26.276Z,35.80
2019-05-22T07:49:55.836Z,34.50
2019-05-22T07:52:25.996Z,36.13
2019-05-22T07:54:55.747Z,35.83
2019-05-22T07:57:25.753Z,35.70
2019-05-22T07:59:55.564Z,33.20
2019-05-22T08:02:26.481Z,33.57
2019-05-22T08:04:55.963Z,32.97
2019-05-22T08:07:27.239Z,33.13
2019-05-22T08:09:56.778Z,33.13
2019-05-22T08:12:26.782Z,33.53
2019-05-22T08:14:56.270Z,32.20
2019-05-22T08:17:27.068Z,34.00
2019-05-22T08:19:56.903Z,32.67
2019-05-22T08:22:26.541Z,32.60
2019-05-22T08:24:56.082Z,32.23
2019-05-22T08:27:26.009Z,31.47
2019-05-22T08:29:57.155Z,32.57
2019-05-22T08:32:26.643Z,34.47
2019-05-22T08:34:56.384Z,34.77
2019-05-22T08:37:29.445Z,37.20
2019-05-22T08:40:00.073Z,36.90
2019-05-22T08:42:30.960Z,36.10
2019-05-22T08:45:01.556Z,34.43
2019-05-22T08:47:31.292Z,34.50
2019-05-22T08:50:01.289Z,34.33
2019-05-22T08:52:31.383Z,32.97
2019-05-22T08:55:01.388Z,30.53
2019-05-22T08:57:31.591Z,29.77
2019-05-22T09:00:01.061Z,27.80
2019-05-22T09:02:30.511Z,28.47
2019-05-22T09:05:00.345Z,26.07
2019-05-22T09:07:30.988Z,25.67
2019-05-22T09:10:00.453Z,25.33
2019-05-22T09:12:30.473Z,24.90
2019-05-22T09:15:00.105Z,24.13
2019-05-22T09:17:29.937Z,25.67
2019-05-22T09:19:59.478Z,26.57
2019-05-22T09:22:39.950Z,26.17
2019-05-22T09:25:00.954Z,26.20
2019-05-22T09:27:30.642Z,27.53
2019-05-22T09:30:00.444Z,26.17
2019-05-22T09:32:29.897Z,27.47
2019-05-22T09:34:59.359Z,26.50
2019-05-22T09:37:29.008Z,27.37
2019-05-22T09:39:58.503Z,27.13
2019-05-22T09:42:28.935Z,28.83
2019-05-22T09:44:58.700Z,26.53
2019-05-22T09:47:28.432Z,27.33
2019-05-22T09:49:58.319Z,27.53
2019-05-22T09:52:28.134Z,27.30
2019-05-22T09:54:57.612Z,25.93
2019-05-22T09:57:29.353Z,26.30
2019-05-22T09:59:58.825Z,26.73
2019-05-22T10:02:30.582Z,26.27
2019-05-22T10:05:00.029Z,25.60
2019-05-22T10:07:30.098Z,26.93
2019-05-22T10:09:59.636Z,27.67
2019-05-22T10:12:29.551Z,28.57
2019-05-22T10:14:59.311Z,29.33
2019-05-22T10:17:28.802Z,29.00
2019-05-22T10:19:58.872Z,30.07
2019-05-22T10:22:33.467Z,30.57
2019-05-22T10:25:14.639Z,29.87
2019-05-22T10:27:35.474Z,29.90
2019-05-22T10:30:13.763Z,31.87
2019-05-22T10:32:43.591Z,30.43
2019-05-22T10:35:13.572Z,33.50
2019-05-22T10:37:43.203Z,32.67
2019-05-22T10:40:13.976Z,31.73
2019-05-22T10:42:45.148Z,30.40
2019-05-22T10:45:15.230Z,30.77
2019-05-22T10:47:45.140Z,30.83
2019-05-22T10:50:15.097Z,33.23
2019-05-22T10:52:44.737Z,32.47
2019-05-22T10:55:14.458Z,33.60
2019-05-22T10:57:44.896Z,36.67
2019-05-22T11:00:15.976Z,36.03
2019-05-22T11:02:46.062Z,36.50
2019-05-22T11:05:16.763Z,35.90
2019-05-22T11:07:46.655Z,35.87
2019-05-22T11:10:18.059Z,34.67
2019-05-22T11:12:47.745Z,35.23
2019-05-22T11:15:17.481Z,35.73
2019-05-22T11:17:47.152Z,36.07
2019-05-22T11:20:17.714Z,34.43
2019-05-22T11:22:47.558Z,34.67
2019-05-22T11:25:17.633Z,33.63
2019-05-22T11:27:47.188Z,32.07
2019-05-22T11:30:18.479Z,33.53
2019-05-22T11:32:48.804Z,30.97
2019-05-22T11:35:19.883Z,31.40
2019-05-22T11:37:49.362Z,32.03
2019-05-22T11:40:20.269Z,28.77
2019-05-22T11:42:51.854Z,28.67
2019-05-22T11:45:22.327Z,28.67
2019-05-22T11:47:52.260Z,28.27
2019-05-22T11:50:22.314Z,28.57
2019-05-22T11:52:51.765Z,27.67
2019-05-22T11:55:21.311Z,25.77
2019-05-22T11:57:51.819Z,26.10
2019-05-22T12:00:23.170Z,25.17
2019-05-22T12:02:53.285Z,26.07
2019-05-22T12:05:22.923Z,26.20
2019-05-22T12:07:52.650Z,26.27
2019-05-22T12:10:23.238Z,26.43
2019-05-22T12:12:53.425Z,26.37
2019-05-22T12:15:25.018Z,26.20
2019-05-22T12:17:54.906Z,27.37
2019-05-22T12:20:26.105Z,27.17
2019-05-22T12:22:56.821Z,26.00
2019-05-22T12:25:26.432Z,26.10
2019-05-22T12:27:56.659Z,26.67
2019-05-22T12:30:26.131Z,25.03
2019-05-22T12:32:56.331Z,26.40
2019-05-22T12:35:26.566Z,25.27
2019-05-22T12:37:57.269Z,25.10
2019-05-22T12:40:29.813Z,24.27
2019-05-22T12:43:00.153Z,24.73
2019-05-22T12:45:31.132Z,23.97
2019-05-22T12:48:01.466Z,25.00
2019-05-22T12:50:31.589Z,24.10
2019-05-22T12:53:03.366Z,26.23
2019-05-22T12:55:33.072Z,25.00
2019-05-22T12:58:03.493Z,23.67
2019-05-22T13:00:34.803Z,25.63
2019-05-22T13:03:04.862Z,24.87
2019-05-22T13:05:36.124Z,25.63
2019-05-22T13:08:05.748Z,25.23
2019-05-22T13:10:36.108Z,24.13
2019-05-22T13:13:05.632Z,25.00
2019-05-22T13:15:36.736Z,23.80
2019-05-22T13:18:07.228Z,23.77
2019-05-22T13:20:43.552Z,25.10
2019-05-22T13:23:12.586Z,24.67
2019-05-22T13:25:46.804Z,22.73
2019-05-22T13:28:17.691Z,22.40
2019-05-22T13:30:51.976Z,22.83
2019-05-22T13:33:24.667Z,20.93
2019-05-22T13:35:56.297Z,21.07
2019-05-22T13:38:25.933Z,21.23
2019-05-22T13:40:56.157Z,22.07
2019-05-22T13:43:27.051Z,21.50
2019-05-22T13:45:56.880Z,22.17
2019-05-22T13:48:26.607Z,22.60
2019-05-22T13:50:57.123Z,21.77
2019-05-22T13:53:27.799Z,22.20
2019-05-22T13:55:58.059Z,21.60
2019-05-22T13:58:28.283Z,21.83
2019-05-22T14:00:58.151Z,22.53
2019-05-22T14:03:27.818Z,23.27
2019-05-22T14:05:58.133Z,21.90
2019-05-22T14:08:27.596Z,23.40
2019-05-22T14:10:57.660Z,23.10
2019-05-22T14:13:27.799Z,21.90
2019-05-22T14:15:57.928Z,23.30
2019-05-22T14:18:28.126Z,24.10
2019-05-22T14:20:57.642Z,23.17
2019-05-22T14:23:27.105Z,21.00
2019-05-22T14:25:56.589Z,21.17
2019-05-22T14:28:27.295Z,22.23
2019-05-22T14:30:57.705Z,20.73
2019-05-22T14:33:28.186Z,20.03
2019-05-22T14:35:58.555Z,21.63
2019-05-22T14:38:28.478Z,21.77
2019-05-22T14:40:58.034Z,22.10
2019-05-22T14:43:27.851Z,23.40
2019-05-22T14:45:57.501Z,24.57
2019-05-22T14:48:27.029Z,24.43
2019-05-22T14:50:56.683Z,22.90
2019-05-22T14:53:27.284Z,25.17
2019-05-22T14:55:57.630Z,27.10
2019-05-22T14:58:27.479Z,24.90
2019-05-22T15:00:56.912Z,26.27
2019-05-22T15:03:26.566Z,27.77
2019-05-22T15:05:56.301Z,26.30
2019-05-22T15:08:25.815Z,25.90
2019-05-22T15:10:59.242Z,26.37
2019-05-22T15:13:28.882Z,26.43
2019-05-22T15:15:58.602Z,26.73
2019-05-22T15:18:29.065Z,25.23
2019-05-22T15:21:02.505Z,26.63
2019-05-22T15:23:33.511Z,28.20
2019-05-22T15:26:03.378Z,27.87
2019-05-22T15:28:33.261Z,27.77
2019-05-22T15:31:03.098Z,27.83
2019-05-22T15:33:33.867Z,29.63
2019-05-22T15:36:06.736Z,29.73
2019-05-22T15:38:38.590Z,29.47
2019-05-22T15:41:08.588Z,28.87
2019-05-22T15:43:39.227Z,29.97
2019-05-22T15:46:10.317Z,28.83
2019-05-22T15:48:40.383Z,30.47
2019-05-22T15:51:10.023Z,29.43
2019-05-22T15:53:39.769Z,32.23
2019-05-22T15:56:09.824Z,31.37
2019-05-22T15:58:41.275Z,31.97
2019-05-22T16:01:11.092Z,32.00
2019-05-22T16:03:42.772Z,33.03
2019-05-22T16:06:13.725Z,34.93
2019-05-22T16:08:43.719Z,31.83
2019-05-22T16:11:14.727Z,30.67
2019-05-22T16:13:46.232Z,30.27
2019-05-22T16:16:16.675Z,29.40
2019-05-22T16:18:47.519Z,29.00
2019-05-22T16:21:17.918Z,30.77
2019-05-22T16:23:47.768Z,31.00
2019-05-22T16:26:17.891Z,31.73
2019-05-22T16:28:48.745Z,31.50
2019-05-22T16:31:21.489Z,32.43
2019-05-22T16:33:53.530Z,31.03
2019-05-22T16:36:24.024Z,31.90
2019-05-22T16:38:54.721Z,31.97
2019-05-22T16:41:24.694Z,30.83
2019-05-22T16:43:55.611Z,31.73
2019-05-22T16:46:25.633Z,33.13
2019-05-22T16:48:56.003Z,33.97
2019-05-22T16:51:26.408Z,31.60
2019-05-22T16:53:59.438Z,32.47
2019-05-22T16:56:29.540Z,33.83
2019-05-22T16:58:59.349Z,33.30
2019-05-22T17:01:28.984Z,33.07
2019-05-22T17:04:00.627Z,32.90
2019-05-22T17:06:30.889Z,33.87
2019-05-22T17:09:01.415Z,33.50
2019-05-22T17:11:32.453Z,33.30
2019-05-22T17:14:03.305Z,32.63
2019-05-22T17:16:34.672Z,31.87
2019-05-22T17:19:25.809Z,31.90
2019-05-22T17:21:43.291Z,32.30
2019-05-22T17:24:14.592Z,29.33
2019-05-22T17:26:44.592Z,32.13
2019-05-22T17:29:14.085Z,31.97
2019-05-22T17:31:43.758Z,32.90
2019-05-22T17:34:32.718Z,30.80
2019-05-22T17:37:08.611Z,32.17
2019-05-22T17:39:40.774Z,33.43
2019-05-22T17:42:13.159Z,32.27
2019-05-22T17:44:45.646Z,33.00
2019-05-22T17:47:17.202Z,33.80
2019-05-22T17:49:47.020Z,33.90
2019-05-22T17:52:20.361Z,33.70
2019-05-22T17:54:51.338Z,34.57
2019-05-22T17:57:22.133Z,33.47
2019-05-22T17:59:52.687Z,33.23
2019-05-22T18:02:23.880Z,35.20
2019-05-22T18:04:53.359Z,33.70
2019-05-22T18:07:23.395Z,34.87
2019-05-22T18:09:52.943Z,35.20
2019-05-22T18:12:22.421Z,34.23
2019-05-22T18:14:51.916Z,33.50
2019-05-22T18:17:21.411Z,34.60
2019-05-22T18:19:51.164Z,34.77
2019-05-22T18:22:20.866Z,36.43
2019-05-22T18:24:50.419Z,35.23
2019-05-22T18:27:25.118Z,35.17
2019-05-22T18:29:52.965Z,33.70
2019-05-22T18:32:22.977Z,33.63
2019-05-22T18:34:52.495Z,33.83
2019-05-22T18:37:22.019Z,33.93
2019-05-22T18:39:51.524Z,34.87
2019-05-22T18:42:21.344Z,33.33
2019-05-22T18:44:50.858Z,33.77
2019-05-22T18:47:20.841Z,34.83
2019-05-22T18:49:50.362Z,33.83
2019-05-22T18:52:20.482Z,34.77
2019-05-22T18:54:50.045Z,34.70
2019-05-22T18:57:20.481Z,35.07
2019-05-22T18:59:51.225Z,35.00
2019-05-22T19:02:20.867Z,37.13
2019-05-22T19:04:50.724Z,35.83
2019-05-22T19:07:20.271Z,34.50
2019-05-22T19:09:49.828Z,35.53
2019-05-22T19:12:19.535Z,35.70
2019-05-22T19:14:49.645Z,35.43
2019-05-22T19:17:19.322Z,36.40
2019-05-22T19:19:49.902Z,35.23
2019-05-22T19:22:20.245Z,36.90
2019-05-22T19:24:50.005Z,36.70
2019-05-22T19:27:19.877Z,36.90
2019-05-22T19:29:49.537Z,35.57
2019-05-22T19:32:19.660Z,36.77
2019-05-22T19:34:49.234Z,34.90
2019-05-22T19:37:19.192Z,37.83
2019-05-22T19:39:48.681Z,36.30
2019-05-22T19:42:18.424Z,36.73
2019-05-22T19:44:48.099Z,36.40
2019-05-22T19:47:19.797Z,37.50
2019-05-22T19:49:49.780Z,36.33
2019-05-22T19:52:22.559Z,35.60
2019-05-22T19:54:51.246Z,36.50
2019-05-22T19:57:20.853Z,36.13
2019-05-22T19:59:50.407Z,36.40
2019-05-22T20:02:20.692Z,35.07
2019-05-22T20:04:51.346Z,35.97
2019-05-22T20:07:22.026Z,37.07
2019-05-22T20:09:51.881Z,38.00
2019-05-22T20:12:24.835Z,35.30
2019-05-22T20:14:53.159Z,36.70
2019-05-22T20:17:22.831Z,36.37
2019-05-22T20:19:53.340Z,36.47
2019-05-22T20:22:23.405Z,36.27
2019-05-22T20:24:53.567Z,33.10
2019-05-22T20:27:24.414Z,36.23
2019-05-22T20:29:54.142Z,35.17
2019-05-22T20:32:24.281Z,33.70
2019-05-22T20:34:54.067Z,32.87
2019-05-22T20:37:23.735Z,34.33
2019-05-22T20:39:53.493Z,34.83
2019-05-22T20:42:23.583Z,34.97
2019-05-22T20:44:53.538Z,33.40
2019-05-22T20:47:25.374Z,33.47
2019-05-22T20:49:55.215Z,32.07
2019-05-22T20:52:24.977Z,31.03
2019-05-22T20:54:55.927Z,32.50
2019-05-22T20:57:26.387Z,31.97
2019-05-22T20:59:56.841Z,32.47
2019-05-22T21:02:27.177Z,32.23
2019-05-22T21:04:57.548Z,34.03
2019-05-22T21:07:33.568Z,30.63
2019-05-22T21:10:03.819Z,32.07
2019-05-22T21:12:36.129Z,32.10
2019-05-22T21:15:07.449Z,29.27
2019-05-22T21:17:37.595Z,29.67
2019-05-22T21:20:10.742Z,29.77
2019-05-22T21:22:41.053Z,29.50
2019-05-22T21:25:12.097Z,29.07
2019-05-22T21:27:42.567Z,29.37
2019-05-22T21:30:12.683Z,29.47
2019-05-22T21:32:44.086Z,29.50
2019-05-22T21:35:16.405Z,27.53
2019-05-22T21:37:46.411Z,28.20
2019-05-22T21:40:16.714Z,26.27
2019-05-22T21:42:46.663Z,28.03
2019-05-22T21:45:16.402Z,27.67
2019-05-22T21:47:46.234Z,27.53
2019-05-22T21:50:16.710Z,27.67
2019-05-22T21:52:46.185Z,27.20
2019-05-22T21:55:17.922Z,27.37
2019-05-22T21:57:47.971Z,28.53
2019-05-22T22:00:40.648Z,27.23
2019-05-22T22:03:12.978Z,27.20
2019-05-22T22:05:43.493Z,28.70
2019-05-22T22:08:13.415Z,27.93
2019-05-22T22:10:43.161Z,27.43
2019-05-22T22:13:13.075Z,29.03
2019-05-22T22:15:45.590Z,28.10
2019-05-22T22:18:16.008Z,27.23
2019-05-22T22:20:46.103Z,28.53
2019-05-22T22:23:16.482Z,28.63
2019-05-22T22:25:46.341Z,28.17
2019-05-22T22:28:17.642Z,27.93
2019-05-22T22:30:48.782Z,27.80
2019-05-22T22:33:20.369Z,26.60
2019-05-22T22:35:51.057Z,26.77
2019-05-22T22:38:22.046Z,28.13
2019-05-22T22:40:53.544Z,27.07
2019-05-22T22:43:24.332Z,26.17
2019-05-22T22:46:09.239Z,25.90
2019-05-22T22:48:40.458Z,26.40
2019-05-22T22:51:12.506Z,26.17
2019-05-22T22:53:43.669Z,27.17
2019-05-22T22:56:14.519Z,26.20
2019-05-22T22:58:44.680Z,26.47
2019-05-22T23:01:30.722Z,25.83
2019-05-22T23:04:01.029Z,26.57
2019-05-22T23:06:31.129Z,25.40
2019-05-22T23:09:02.024Z,26.10
2019-05-22T23:11:32.727Z,26.53
2019-05-22T23:14:03.403Z,27.63
2019-05-22T23:16:33.099Z,26.63
2019-05-22T23:19:15.761Z,26.73
2019-05-22T23:21:45.493Z,27.33
2019-05-22T23:24:16.659Z,25.97
2019-05-22T23:26:46.139Z,26.63
2019-05-22T23:29:17.673Z,26.73
2019-05-22T23:31:48.488Z,26.67
2019-05-22T23:34:18.882Z,25.83
2019-05-22T23:36:48.612Z,24.53
2019-05-22T23:39:18.753Z,24.90
2019-05-22T23:41:49.084Z,25.47
2019-05-22T23:44:21.508Z,25.33
2019-05-22T23:46:51.421Z,25.40
2019-05-22T23:49:20.884Z,25.43
2019-05-22T23:51:50.406Z,24.57
2019-05-22T23:54:19.881Z,25.10
2019-05-22T23:56:49.630Z,25.37
2019-05-22T23:59:19.590Z,25.03
